Time;durP1;ratioP1;P1;durP2;ratioP2;P2;SDS_P1;SDS_P2;PMS_P1;PMS_P2;Temp;Humidity;BMP_temperature;BMP_pressure;BME280_temperature;BME280_humidity;BME280_pressure;Samples;Min_cycle;Max_cycle;Signal;HPM_P1;HPM_P2
2022/11/10 00:02:21;;;;;;;;;;;;;;;;;;4971224;28;19922;-87
2022/11/10 00:05:05;;;;;;;;;;;;;;;;;;4956869;28;19956;-88
2022/11/10 00:07:49;;;;;;;;;;;;;;;;;;4972684;28;20034;-86
2022/11/10 00:10:55;;;;;;;;;;;;;;;;;;4971131;28;19925;-87
2022/11/10 00:16:59;;;;;;;;;;;;;;;;;;4989159;28;19914;-87
2022/11/10 00:17:05;;;;;;;;;;;;;;;;;;4970967;28;19921;-86
2022/11/10 00:19:49;;;;;;;;;;;;;;;;;;4978505;28;19921;-86
2022/11/10 00:22:34;;;;;;;;;;;;;;;;;;4962637;28;19942;-86
2022/11/10 00:25:18;;;;;;;;;;;;;;;;;;4967692;28;19966;-86
2022/11/10 00:28:02;;;;;;;;;;;;;;;;;;4971828;28;19914;-87
2022/11/10 00:30:46;;;;;;;;;;;;;;;;;;4948588;28;19918;-86
2022/11/10 00:33:30;;;;;;;;;;;;;;;;;;4974951;28;19918;-88
2022/11/10 00:36:14;;;;;;;;;;;;;;;;;;4959007;28;19915;-87
2022/11/10 00:38:58;;;;;;;;;;;;;;;;;;4969701;28;19946;-87
2022/11/10 00:41:42;;;;;;;;;;;;;;;;;;4970526;28;19922;-87
2022/11/10 00:44:26;;;;;;;;;;;;;;;;;;4958448;28;19922;-87
2022/11/10 00:47:10;;;;;;;;;;;;;;;;;;4950967;29;20378;-87
2022/11/10 00:49:55;;;;;;;;;;;;;;;;;;4970617;28;20370;-88
2022/11/10 00:52:39;;;;;;;;;;;;;;;;;;4947451;28;19918;-87
2022/11/10 00:55:23;;;;;;;;;;;;;;;;;;4964027;28;20399;-88
2022/11/10 00:58:07;;;;;;;;;;;;;;;;;;4971021;28;20013;-86
2022/11/10 01:00:51;;;;;;;;;;;;;;;;;;4962699;28;19922;-86
2022/11/10 01:03:35;;;;;;;;;;;;;;;;;;4947831;29;19921;-87
2022/11/10 01:06:19;;;;;;;;;;;;;;;;;;4959603;28;19922;-86
2022/11/10 01:09:03;;;;;;;;;;;;;;;;;;4981193;28;20124;-84
2022/11/10 01:11:47;;;;;;;;;;;;;;;;;;4967038;28;19914;-91
2022/11/10 01:14:31;;;;;;;;;;;;;;;;;;4972109;28;19938;-91
2022/11/10 01:17:16;;;;;;;;;;;;;;;;;;4965139;29;19921;-93
2022/11/10 01:20:00;;;;;;;;;;;;;;;;;;4979993;28;19973;-93
2022/11/10 01:22:44;;;;;;;;;;;;;;;;;;4949239;29;20011;-92
2022/11/10 01:25:28;;;;;;;;;;;;;;;;;;4959278;28;20133;-92
2022/11/10 01:28:12;;;;;;;;;;;;;;;;;;4950327;28;19922;-91
2022/11/10 01:30:56;;;;;;;;;;;;;;;;;;4959085;29;19914;-92
2022/11/10 01:33:41;;;;;;;;;;;;;;;;;;4975690;28;20046;-93
2022/11/10 01:36:25;;;;;;;;;;;;;;;;;;4963072;28;19938;-93
2022/11/10 01:39:09;;;;;;;;;;;;;;;;;;4971542;28;19914;-91
2022/11/10 01:41:53;;;;;;;;;;;;;;;;;;4967397;28;19914;-93
2022/11/10 01:44:37;;;;;;;;;;;;;;;;;;4966799;28;19922;-92
2022/11/10 01:47:21;;;;;;;;;;;;;;;;;;4978706;28;19926;-93
2022/11/10 01:50:05;;;;;;;;;;;;;;;;;;4962831;28;19914;-93
2022/11/10 01:52:49;;;;;;;;;;;;;;;;;;4952542;28;19978;-91
2022/11/10 01:55:33;;;;;;;;;;;;;;;;;;4979846;28;19914;-91
2022/11/10 01:58:17;;;;;;;;;;;;;;;;;;4968571;28;19945;-92
2022/11/10 02:01:01;;;;;;;;;;;;;;;;;;4968337;28;19918;-92
2022/11/10 02:03:46;;;;;;;;;;;;;;;;;;4954390;29;19922;-94
2022/11/10 02:06:30;;;;;;;;;;;;;;;;;;4967775;28;19940;-92
2022/11/10 02:09:14;;;;;;;;;;;;;;;;;;4980646;28;19914;-94
2022/11/10 02:11:58;;;;;;;;;;;;;;;;;;4951384;29;19938;-93
2022/11/10 02:14:42;;;;;;;;;;;;;;;;;;4963002;28;19915;-94
2022/11/10 02:17:26;;;;;;;;;;;;;;;;;;4963850;28;19921;-93
2022/11/10 02:20:10;;;;;;;;;;;;;;;;;;4980160;28;19918;-92
2022/11/10 02:22:54;;;;;;;;;;;;;;;;;;4981853;28;19914;-94
2022/11/10 02:25:38;;;;;;;;;;;;;;;;;;4969005;28;19954;-93
2022/11/10 02:28:22;;;;;;;;;;;;;;;;;;4981828;28;19942;-95
2022/11/10 02:31:08;;;;;;;;;;;;;;;;;;4958888;29;19921;-93
2022/11/10 02:33:52;;;;;;;;;;;;;;;;;;4976858;28;19915;-92
2022/11/10 02:36:36;;;;;;;;;;;;;;;;;;4967145;28;19915;-91
2022/11/10 02:39:20;;;;;;;;;;;;;;;;;;4968069;28;19934;-93
2022/11/10 02:42:09;;;;;;;;;;;;;;;;;;4979605;28;19914;-93
2022/11/10 02:44:53;;;;;;;;;;;;;;;;;;4972227;28;19918;-96
2022/11/10 02:47:37;;;;;;;;;;;;;;;;;;4969978;28;19925;-94
2022/11/10 02:50:21;;;;;;;;;;;;;;;;;;4970599;28;19929;-92
2022/11/10 02:53:05;;;;;;;;;;;;;;;;;;4958565;29;19915;-95
2022/11/10 02:55:49;;;;;;;;;;;;;;;;;;4962674;28;19914;-93
2022/11/10 02:58:34;;;;;;;;;;;;;;;;;;4966703;28;19949;-96
2022/11/10 03:01:17;;;;;;;;;;;;;;;;;;4958507;29;19921;-94
2022/11/10 03:04:02;;;;;;;;;;;;;;;;;;4962805;28;19981;-94
2022/11/10 03:06:46;;;;;;;;;;;;;;;;;;4963779;29;19935;-93
2022/11/10 03:09:30;;;;;;;;;;;;;;;;;;4965185;28;20011;-92
2022/11/10 03:12:14;;;;;;;;;;;;;;;;;;4967525;28;19915;-92
2022/11/10 03:14:59;;;;;;;;;;;;;;;;;;4973144;28;19929;-94
2022/11/10 03:17:43;;;;;;;;;;;;;;;;;;4969333;28;19914;-93
2022/11/10 03:20:27;;;;;;;;;;;;;;;;;;4983524;28;19914;-94
2022/11/10 03:23:11;;;;;;;;;;;;;;;;;;4984029;28;19925;-92
2022/11/10 03:25:55;;;;;;;;;;;;;;;;;;4971660;28;19918;-93
2022/11/10 03:28:39;;;;;;;;;;;;;;;;;;4971946;28;19941;-94
2022/11/10 03:31:23;;;;;;;;;;;;;;;;;;4972013;28;19914;-92
2022/11/10 03:34:07;;;;;;;;;;;;;;;;;;4955594;28;19915;-94
2022/11/10 03:36:52;;;;;;;;;;;;;;;;;;4986410;28;19914;-94
2022/11/10 03:39:36;;;;;;;;;;;;;;;;;;4976170;28;19914;-94
2022/11/10 03:42:20;;;;;;;;;;;;;;;;;;4986869;28;20112;-92
2022/11/10 03:45:04;;;;;;;;;;;;;;;;;;4985556;28;19918;-94
2022/11/10 03:47:49;;;;;;;;;;;;;;;;;;4993352;23;19926;-90
2022/11/10 03:50:36;;;;;;;;;;;;;;;;;;4982149;28;19966;-88
2022/11/10 03:53:20;;;;;;;;;;;;;;;;;;4980383;29;19922;-87
2022/11/10 03:56:04;;;;;;;;;;;;;;;;;;4978684;28;19914;-88
2022/11/10 03:58:49;;;;;;;;;;;;;;;;;;4972765;29;20005;-87
2022/11/10 04:01:33;;;;;;;;;;;;;;;;;;4973192;28;19922;-91
2022/11/10 04:10:24;;;;;;;;;;;;;;;;;;4960989;29;19915;-84
2022/11/10 04:16:13;;;;;;;;;;;;;;;;;;4996810;28;19977;-90
2022/11/10 04:18:59;;;;;;;;;;;;;;;;;;4964756;28;19902;-90
2022/11/10 04:21:47;;;;;;;;;;;;;;;;;;5052835;23;19926;-90
2022/11/10 04:24:31;;;;;;;;;;;;;;;;;;4997588;28;19913;-86
2022/11/10 04:27:16;;;;;;;;;;;;;;;;;;4979659;28;19918;-92
2022/11/10 04:30:03;;;;;;;;;;;;;;;;;;4976634;28;20018;-93
2022/11/10 04:32:47;;;;;;;;;;;;;;;;;;4978219;28;19906;-92
2022/11/10 04:35:32;;;;;;;;;;;;;;;;;;4981318;28;19928;-90
2022/11/10 04:38:16;;;;;;;;;;;;;;;;;;5049383;23;19930;-86
2022/11/10 04:41:06;;;;;;;;;;;;;;;;;;5064850;23;19929;-90
2022/11/10 04:43:56;;;;;;;;;;;;;;;;;;5051698;23;20037;-93
2022/11/10 04:46:41;;;;;;;;;;;;;;;;;;4960573;28;19958;-92
2022/11/10 04:49:25;;;;;;;;;;;;;;;;;;4960578;28;19985;-92
2022/11/10 04:52:09;;;;;;;;;;;;;;;;;;4962618;28;20282;-92
2022/11/10 04:54:54;;;;;;;;;;;;;;;;;;4967211;28;19921;-90
2022/11/10 04:57:38;;;;;;;;;;;;;;;;;;4961531;28;19918;-90
2022/11/10 05:00:22;;;;;;;;;;;;;;;;;;4967638;28;19910;-86
2022/11/10 05:03:07;;;;;;;;;;;;;;;;;;5135669;23;19926;-85
2022/11/10 05:05:51;;;;;;;;;;;;;;;;;;4969909;28;19910;-87
2022/11/10 05:08:35;;;;;;;;;;;;;;;;;;4979164;28;19953;-90
2022/11/10 05:11:24;;;;;;;;;;;;;;;;;;5108693;23;19922;-86
2022/11/10 05:14:08;;;;;;;;;;;;;;;;;;5193675;23;19917;-88
2022/11/10 05:16:55;;;;;;;;;;;;;;;;;;5677612;23;19910;-87
2022/11/10 05:30:27;;;;;;;;;;;;;;;;;;5248773;23;19926;-92
2022/11/10 05:33:12;;;;;;;;;;;;;;;;;;4972071;28;19914;-91
2022/11/10 05:35:59;;;;;;;;;;;;;;;;;;5000707;28;19942;-88
2022/11/10 05:41:28;;;;;;;;;;;;;;;;;;5457653;23;19945;-84
2022/11/10 05:44:13;;;;;;;;;;;;;;;;;;5002250;28;19906;-88
2022/11/10 05:46:58;;;;;;;;;;;;;;;;;;4981632;28;19918;-89
2022/11/10 05:49:43;;;;;;;;;;;;;;;;;;5149581;23;19985;-87
2022/11/10 05:52:28;;;;;;;;;;;;;;;;;;4984022;28;19930;-89
2022/11/10 05:55:16;;;;;;;;;;;;;;;;;;5766061;23;20294;-90
2022/11/10 05:58:10;;;;;;;;;;;;;;;;;;5670905;23;19964;-88
2022/11/10 06:06:21;;;;;;;;;;;;;;;;;;5914476;23;21830;-87
2022/11/10 06:09:05;;;;;;;;;;;;;;;;;;5882357;23;19945;-85
2022/11/10 06:14:34;;;;;;;;;;;;;;;;;;5319621;23;19922;-85
2022/11/10 06:20:00;;;;;;;;;;;;;;;;;;5181759;23;19910;-84
2022/11/10 06:22:46;;;;;;;;;;;;;;;;;;5085181;23;19924;-89
2022/11/10 06:25:41;;;;;;;;;;;;;;;;;;5007805;23;19969;-86
2022/11/10 06:28:26;;;;;;;;;;;;;;;;;;4982996;28;19919;-88
2022/11/10 06:31:11;;;;;;;;;;;;;;;;;;4997988;28;19941;-86
2022/11/10 06:36:39;;;;;;;;;;;;;;;;;;5449567;23;19926;-87
2022/11/10 06:39:23;;;;;;;;;;;;;;;;;;4995375;28;19914;-91
2022/11/10 06:42:07;;;;;;;;;;;;;;;;;;4995195;28;19989;-88
2022/11/10 06:44:52;;;;;;;;;;;;;;;;;;4997388;28;19928;-90
2022/11/10 06:47:47;;;;;;;;;;;;;;;;;;5080308;23;19934;-88
2022/11/10 06:50:32;;;;;;;;;;;;;;;;;;5085368;23;20294;-91
2022/11/10 06:53:19;;;;;;;;;;;;;;;;;;4986466;28;19918;-91
2022/11/10 06:56:19;;;;;;;;;;;;;;;;;;5469901;23;19926;-88
2022/11/10 06:59:06;;;;;;;;;;;;;;;;;;4972058;28;19903;-90
2022/11/10 07:12:45;;;;;;;;;;;;;;;;;;5677799;23;19925;-86
2022/11/10 07:18:08;;;;;;;;;;;;;;;;;;5029006;23;19926;-83
2022/11/10 07:20:52;;;;;;;;;;;;;;;;;;5001113;28;19917;-83
2022/11/10 07:23:36;;;;;;;;;;;;;;;;;;4979995;28;19964;-83
2022/11/10 07:26:21;;;;;;;;;;;;;;;;;;4979731;28;19918;-82
2022/11/10 07:29:05;;;;;;;;;;;;;;;;;;4976181;28;19965;-86
2022/11/10 07:31:52;;;;;;;;;;;;;;;;;;4984966;28;19917;-83
2022/11/10 07:34:36;;;;;;;;;;;;;;;;;;4987850;28;19922;-83
2022/11/10 07:37:20;;;;;;;;;;;;;;;;;;4982358;28;20254;-85
2022/11/10 07:40:05;;;;;;;;;;;;;;;;;;4965248;28;19902;-85
2022/11/10 07:42:49;;;;;;;;;;;;;;;;;;4978824;28;19933;-82
2022/11/10 07:45:33;;;;;;;;;;;;;;;;;;5001745;28;19925;-83
2022/11/10 07:48:17;;;;;;;;;;;;;;;;;;5012908;28;19933;-84
2022/11/10 07:51:01;;;;;;;;;;;;;;;;;;5012445;28;19913;-84
2022/11/10 07:53:46;;;;;;;;;;;;;;;;;;5008145;28;19914;-83
2022/11/10 07:56:24;;;;;;;;;;;;;;;;;;5376878;23;19978;-84
2022/11/10 07:59:09;;;;;;;;;;;;;;;;;;5279813;23;19909;-87
2022/11/10 08:01:53;;;;;;;;;;;;;;;;;;5006731;28;20366;-88
2022/11/10 08:04:37;;;;;;;;;;;;;;;;;;5002843;28;20223;-92
2022/11/10 08:07:22;;;;;;;;;;;;;;;;;;4987802;28;19915;-86
2022/11/10 08:10:12;;;;;;;;;;;;;;;;;;5752586;23;19928;-88
2022/11/10 08:12:58;;;;;;;;;;;;;;;;;;5093536;23;19926;-89
2022/11/10 08:15:53;;;;;;;;;;;;;;;;;;5085725;23;19965;-90
2022/11/10 08:18:37;;;;;;;;;;;;;;;;;;4974744;28;20168;-88
2022/11/10 08:21:24;;;;;;;;;;;;;;;;;;5208503;23;19937;-89
2022/11/10 08:24:17;;;;;;;;;;;;;;;;;;5137094;23;20450;-92
2022/11/10 08:27:02;;;;;;;;;;;;;;;;;;4984714;28;19962;-93
2022/11/10 08:29:46;;;;;;;;;;;;;;;;;;4971375;28;19914;-91
2022/11/10 08:32:34;;;;;;;;;;;;;;;;;;5007930;28;19945;-90
2022/11/10 08:35:18;;;;;;;;;;;;;;;;;;4967513;28;19953;-93
2022/11/10 08:38:02;;;;;;;;;;;;;;;;;;4984582;28;20405;-91
2022/11/10 08:40:46;;;;;;;;;;;;;;;;;;4962930;28;19966;-91
2022/11/10 08:43:30;;;;;;;;;;;;;;;;;;4998920;28;19948;-92
2022/11/10 08:46:14;;;;;;;;;;;;;;;;;;4976121;28;20081;-89
2022/11/10 08:48:59;;;;;;;;;;;;;;;;;;4971696;28;19909;-86
2022/11/10 08:51:43;;;;;;;;;;;;;;;;;;4991337;28;20006;-92
2022/11/10 08:54:27;;;;;;;;;;;;;;;;;;4981842;28;19920;-89
2022/11/10 08:57:12;;;;;;;;;;;;;;;;;;4976841;28;20413;-89
2022/11/10 08:59:56;;;;;;;;;;;;;;;;;;4957103;28;19913;-91
2022/11/10 09:02:40;;;;;;;;;;;;;;;;;;4957441;28;19985;-87
2022/11/10 09:05:24;;;;;;;;;;;;;;;;;;4957951;28;19918;-85
2022/11/10 09:08:08;;;;;;;;;;;;;;;;;;4995206;28;19937;-84
2022/11/10 09:10:53;;;;;;;;;;;;;;;;;;4988710;28;19918;-87
2022/11/10 09:13:37;;;;;;;;;;;;;;;;;;4973844;28;19960;-89
2022/11/10 09:16:24;;;;;;;;;;;;;;;;;;4990390;28;19914;-87
2022/11/10 09:19:09;;;;;;;;;;;;;;;;;;4983761;28;19965;-91
2022/11/10 09:21:53;;;;;;;;;;;;;;;;;;4959882;28;19989;-90
2022/11/10 09:24:37;;;;;;;;;;;;;;;;;;4952590;28;19918;-87
2022/11/10 09:27:22;;;;;;;;;;;;;;;;;;4964823;28;19922;-92
2022/11/10 09:30:08;;;;;;;;;;;;;;;;;;4967021;28;23116;-90
2022/11/10 09:32:52;;;;;;;;;;;;;;;;;;4965131;28;20016;-90
2022/11/10 09:35:36;;;;;;;;;;;;;;;;;;4958440;28;19937;-92
2022/11/10 09:38:23;;;;;;;;;;;;;;;;;;4948026;28;19914;-92
2022/11/10 09:41:13;;;;;;;;;;;;;;;;;;4968200;28;20242;-90
2022/11/10 09:43:57;;;;;;;;;;;;;;;;;;4955599;28;20362;-91
2022/11/10 09:46:42;;;;;;;;;;;;;;;;;;4960990;28;19922;-91
2022/11/10 09:49:31;;;;;;;;;;;;;;;;;;4979671;28;20386;-83
2022/11/10 09:52:15;;;;;;;;;;;;;;;;;;4957033;28;19914;-82
2022/11/10 09:55:00;;;;;;;;;;;;;;;;;;4973748;28;20409;-82
2022/11/10 09:57:45;;;;;;;;;;;;;;;;;;4996660;28;19974;-82
2022/11/10 10:00:29;;;;;;;;;;;;;;;;;;4988621;28;19941;-82
2022/11/10 10:03:13;;;;;;;;;;;;;;;;;;4931389;29;19961;-83
2022/11/10 10:05:57;;;;;;;;;;;;;;;;;;4951190;28;19922;-83
2022/11/10 10:08:43;;;;;;;;;;;;;;;;;;4929653;29;20319;-84
2022/11/10 10:11:28;;;;;;;;;;;;;;;;;;4943994;28;19914;-85
2022/11/10 10:14:12;;;;;;;;;;;;;;;;;;4957035;28;19914;-83
2022/11/10 10:16:56;;;;;;;;;;;;;;;;;;4962619;28;19941;-81
2022/11/10 10:19:40;;;;;;;;;;;;;;;;;;4972741;28;19914;-83
2022/11/10 10:22:24;;;;;;;;;;;;;;;;;;4948960;28;19914;-84
2022/11/10 10:25:08;;;;;;;;;;;;;;;;;;4946117;28;19926;-82
2022/11/10 10:27:52;;;;;;;;;;;;;;;;;;4964071;28;19914;-84
2022/11/10 10:30:37;;;;;;;;;;;;;;;;;;4960679;28;20001;-84
2022/11/10 10:33:23;;;;;;;;;;;;;;;;;;4949206;28;20404;-85
2022/11/10 10:36:07;;;;;;;;;;;;;;;;;;4959902;28;20408;-84
2022/11/10 10:38:52;;;;;;;;;;;;;;;;;;4970063;28;19914;-83
2022/11/10 10:41:36;;;;;;;;;;;;;;;;;;4961771;28;19953;-82
2022/11/10 10:44:20;;;;;;;;;;;;;;;;;;4988075;28;19915;-81
2022/11/10 10:47:07;;;;;;;;;;;;;;;;;;4954554;28;19925;-81
2022/11/10 10:49:51;;;;;;;;;;;;;;;;;;4968380;28;19976;-81
2022/11/10 10:52:35;;;;;;;;;;;;;;;;;;4948479;28;20000;-82
2022/11/10 10:55:19;;;;;;;;;;;;;;;;;;4948790;28;19920;-82
2022/11/10 10:58:03;;;;;;;;;;;;;;;;;;4977117;28;19914;-82
2022/11/10 11:00:47;;;;;;;;;;;;;;;;;;4977334;28;19936;-82
2022/11/10 11:03:31;;;;;;;;;;;;;;;;;;4961587;28;19914;-82
2022/11/10 11:06:18;;;;;;;;;;;;;;;;;;4962096;28;19918;-83
2022/11/10 11:09:02;;;;;;;;;;;;;;;;;;4951030;28;19922;-84
2022/11/10 11:11:46;;;;;;;;;;;;;;;;;;4976490;28;20009;-83
2022/11/10 11:14:30;;;;;;;;;;;;;;;;;;4945216;28;19914;-82
2022/11/10 11:17:14;;;;;;;;;;;;;;;;;;4943452;28;20271;-81
2022/11/10 11:19:58;;;;;;;;;;;;;;;;;;4961327;28;19914;-82
2022/11/10 11:22:44;;;;;;;;;;;;;;;;;;4976804;28;19984;-81
2022/11/10 11:25:28;;;;;;;;;;;;;;;;;;4981384;28;19925;-81
2022/11/10 11:28:13;;;;;;;;;;;;;;;;;;4976838;28;19969;-83
2022/11/10 11:30:57;;;;;;;;;;;;;;;;;;4976249;28;19918;-81
2022/11/10 11:33:40;;;;;;;;;;;;;;;;;;4975875;28;19952;-82
2022/11/10 11:36:24;;;;;;;;;;;;;;;;;;4975289;28;19965;-82
2022/11/10 11:39:11;;;;;;;;;;;;;;;;;;4942866;28;19953;-82
2022/11/10 11:41:55;;;;;;;;;;;;;;;;;;4975047;28;19964;-82
2022/11/10 11:44:39;;;;;;;;;;;;;;;;;;4975103;28;19940;-83
2022/11/10 11:47:23;;;;;;;;;;;;;;;;;;4944161;28;19985;-81
2022/11/10 11:50:08;;;;;;;;;;;;;;;;;;4957988;28;20297;-82
2022/11/10 11:52:52;;;;;;;;;;;;;;;;;;4960923;28;19914;-82
2022/11/10 11:55:36;;;;;;;;;;;;;;;;;;4975823;28;19918;-82
2022/11/10 11:58:20;;;;;;;;;;;;;;;;;;4958200;28;20496;-81
2022/11/10 12:01:04;;;;;;;;;;;;;;;;;;4944930;28;19914;-82
2022/11/10 12:03:48;;;;;;;;;;;;;;;;;;4958049;28;20301;-82
2022/11/10 12:06:32;;;;;;;;;;;;;;;;;;4958119;28;19918;-81
2022/11/10 12:09:17;;;;;;;;;;;;;;;;;;4940679;28;20308;-82
2022/11/10 12:12:01;;;;;;;;;;;;;;;;;;4975663;28;19914;-84
2022/11/10 12:14:45;;;;;;;;;;;;;;;;;;4960516;28;19915;-82
2022/11/10 12:17:29;;;;;;;;;;;;;;;;;;4961083;28;19957;-81
2022/11/10 12:20:13;;;;;;;;;;;;;;;;;;4976099;28;20000;-81
2022/11/10 12:22:57;;;;;;;;;;;;;;;;;;4974806;28;19918;-83
2022/11/10 12:25:41;;;;;;;;;;;;;;;;;;4974942;28;19918;-83
2022/11/10 12:28:25;;;;;;;;;;;;;;;;;;4957858;28;20285;-86
2022/11/10 12:31:09;;;;;;;;;;;;;;;;;;4943490;28;19976;-86
2022/11/10 12:33:53;;;;;;;;;;;;;;;;;;4957871;28;20330;-80
2022/11/10 12:36:37;;;;;;;;;;;;;;;;;;4975682;28;19918;-81
2022/11/10 12:39:20;;;;;;;;;;;;;;;;;;4947030;28;19914;-84
2022/11/10 12:42:04;;;;;;;;;;;;;;;;;;4961964;28;19914;-82
2022/11/10 12:44:48;;;;;;;;;;;;;;;;;;4962433;28;19971;-84
2022/11/10 12:47:33;;;;;;;;;;;;;;;;;;4959740;28;19922;-82
2022/11/10 12:50:17;;;;;;;;;;;;;;;;;;5275065;23;19930;-84
2022/11/10 12:53:01;;;;;;;;;;;;;;;;;;4948239;28;19922;-87
2022/11/10 12:55:48;;;;;;;;;;;;;;;;;;4970258;28;19915;-79
2022/11/10 12:58:32;;;;;;;;;;;;;;;;;;4971792;28;19934;-80
2022/11/10 13:01:16;;;;;;;;;;;;;;;;;;4944787;28;19914;-79
2022/11/10 13:04:00;;;;;;;;;;;;;;;;;;4977054;23;19926;-77
2022/11/10 13:06:44;;;;;;;;;;;;;;;;;;4958688;28;19932;-77
2022/11/10 13:09:29;;;;;;;;;;;;;;;;;;4969146;28;19913;-78
2022/11/10 13:12:13;;;;;;;;;;;;;;;;;;4963284;28;20441;-78
2022/11/10 13:14:57;;;;;;;;;;;;;;;;;;4952685;28;20404;-77
2022/11/10 13:17:41;;;;;;;;;;;;;;;;;;4949986;28;20009;-81
2022/11/10 13:20:25;;;;;;;;;;;;;;;;;;4944458;28;20331;-79
2022/11/10 13:23:09;;;;;;;;;;;;;;;;;;4968263;28;19921;-78
2022/11/10 13:25:53;;;;;;;;;;;;;;;;;;4953968;28;19918;-81
2022/11/10 13:28:38;;;;;;;;;;;;;;;;;;4956456;28;19926;-80
2022/11/10 13:31:22;;;;;;;;;;;;;;;;;;4967989;28;19938;-80
2022/11/10 13:34:06;;;;;;;;;;;;;;;;;;4965365;28;19921;-80
2022/11/10 13:36:50;;;;;;;;;;;;;;;;;;4957058;28;20450;-78
2022/11/10 13:39:34;;;;;;;;;;;;;;;;;;4966411;28;19919;-78
2022/11/10 13:42:18;;;;;;;;;;;;;;;;;;4966888;28;20270;-82
2022/11/10 13:45:02;;;;;;;;;;;;;;;;;;4957087;28;20398;-81
2022/11/10 13:47:46;;;;;;;;;;;;;;;;;;4964004;28;19937;-81
2022/11/10 13:50:30;;;;;;;;;;;;;;;;;;4967057;28;20377;-80
2022/11/10 13:53:14;;;;;;;;;;;;;;;;;;4946989;28;19914;-81
2022/11/10 13:55:58;;;;;;;;;;;;;;;;;;4967575;28;19918;-81
2022/11/10 13:58:42;;;;;;;;;;;;;;;;;;4973653;28;19914;-81
2022/11/10 14:01:27;;;;;;;;;;;;;;;;;;4963848;28;19914;-81
2022/11/10 14:04:11;;;;;;;;;;;;;;;;;;4964963;28;19915;-80
2022/11/10 14:06:55;;;;;;;;;;;;;;;;;;4973453;28;20374;-81
2022/11/10 14:09:38;;;;;;;;;;;;;;;;;;4956767;29;19926;-80
2022/11/10 14:12:23;;;;;;;;;;;;;;;;;;4954072;28;19921;-81
2022/11/10 14:15:07;;;;;;;;;;;;;;;;;;4943906;28;19918;-81
2022/11/10 14:17:51;;;;;;;;;;;;;;;;;;4950317;29;19918;-82
2022/11/10 14:20:35;;;;;;;;;;;;;;;;;;4955732;28;19968;-83
2022/11/10 14:23:19;;;;;;;;;;;;;;;;;;4961984;28;19914;-80
2022/11/10 14:26:03;;;;;;;;;;;;;;;;;;4948211;28;19965;-81
2022/11/10 14:28:47;;;;;;;;;;;;;;;;;;4972278;28;19964;-82
2022/11/10 14:31:34;;;;;;;;;;;;;;;;;;4963573;28;19921;-80
2022/11/10 14:34:20;;;;;;;;;;;;;;;;;;4962303;28;19921;-83
2022/11/10 14:37:04;;;;;;;;;;;;;;;;;;4973144;28;20261;-81
2022/11/10 14:39:48;;;;;;;;;;;;;;;;;;4966225;28;19965;-79
2022/11/10 14:42:32;;;;;;;;;;;;;;;;;;4960732;28;19922;-81
2022/11/10 14:45:17;;;;;;;;;;;;;;;;;;4938340;28;20247;-79
2022/11/10 14:48:01;;;;;;;;;;;;;;;;;;4948812;29;19914;-80
2022/11/10 14:50:45;;;;;;;;;;;;;;;;;;4956042;28;19914;-79
2022/11/10 14:53:29;;;;;;;;;;;;;;;;;;4962603;28;19914;-80
2022/11/10 14:56:13;;;;;;;;;;;;;;;;;;4965058;28;19914;-81
2022/11/10 14:58:58;;;;;;;;;;;;;;;;;;4974365;28;20154;-79
2022/11/10 15:01:43;;;;;;;;;;;;;;;;;;4956281;28;19937;-80
2022/11/10 15:04:27;;;;;;;;;;;;;;;;;;4968160;28;19973;-80
2022/11/10 15:07:11;;;;;;;;;;;;;;;;;;4976223;28;19915;-83
2022/11/10 15:09:55;;;;;;;;;;;;;;;;;;4940856;28;20043;-80
2022/11/10 15:12:39;;;;;;;;;;;;;;;;;;4958806;28;19914;-80
2022/11/10 15:15:23;;;;;;;;;;;;;;;;;;4943574;28;19921;-81
2022/11/10 15:18:07;;;;;;;;;;;;;;;;;;4948010;29;19953;-78
2022/11/10 15:20:51;;;;;;;;;;;;;;;;;;4955497;28;20001;-80
2022/11/10 15:23:35;;;;;;;;;;;;;;;;;;4963350;28;19917;-81
2022/11/10 15:26:19;;;;;;;;;;;;;;;;;;4962806;28;20002;-79
2022/11/10 15:29:03;;;;;;;;;;;;;;;;;;4955957;28;19941;-79
2022/11/10 15:31:47;;;;;;;;;;;;;;;;;;4965254;28;20104;-78
2022/11/10 15:34:31;;;;;;;;;;;;;;;;;;4960832;28;19914;-80
2022/11/10 15:37:15;;;;;;;;;;;;;;;;;;4960036;28;19937;-79
2022/11/10 15:39:59;;;;;;;;;;;;;;;;;;4975857;28;19946;-81
2022/11/10 15:42:43;;;;;;;;;;;;;;;;;;4942507;28;19962;-80
2022/11/10 15:45:27;;;;;;;;;;;;;;;;;;4968570;28;20014;-80
2022/11/10 15:48:11;;;;;;;;;;;;;;;;;;4962091;28;20326;-81
2022/11/10 15:50:55;;;;;;;;;;;;;;;;;;4954806;28;19953;-81
2022/11/10 15:53:39;;;;;;;;;;;;;;;;;;4962152;28;20332;-79
2022/11/10 15:56:24;;;;;;;;;;;;;;;;;;4961121;28;19921;-79
2022/11/10 15:59:08;;;;;;;;;;;;;;;;;;4954102;29;19972;-80
2022/11/10 16:01:52;;;;;;;;;;;;;;;;;;4963738;28;20373;-82
2022/11/10 16:04:36;;;;;;;;;;;;;;;;;;4935889;29;19929;-81
2022/11/10 16:07:20;;;;;;;;;;;;;;;;;;4954339;28;19925;-81
2022/11/10 16:10:04;;;;;;;;;;;;;;;;;;4962610;28;19918;-82
2022/11/10 16:12:48;;;;;;;;;;;;;;;;;;4967650;28;19929;-80
2022/11/10 16:15:33;;;;;;;;;;;;;;;;;;4943634;28;19914;-80
2022/11/10 16:18:18;;;;;;;;;;;;;;;;;;4960765;28;19921;-80
2022/11/10 16:21:02;;;;;;;;;;;;;;;;;;4958285;28;19914;-81
2022/11/10 16:23:46;;;;;;;;;;;;;;;;;;4978314;28;19914;-85
2022/11/10 16:26:30;;;;;;;;;;;;;;;;;;4948771;29;20448;-79
2022/11/10 16:29:15;;;;;;;;;;;;;;;;;;4958683;29;19989;-77
2022/11/10 16:31:59;;;;;;;;;;;;;;;;;;4949661;28;19915;-77
2022/11/10 16:34:43;;;;;;;;;;;;;;;;;;4967957;28;20259;-89
2022/11/10 16:37:27;;;;;;;;;;;;;;;;;;4955935;28;20465;-89
2022/11/10 16:40:11;;;;;;;;;;;;;;;;;;4952050;29;19921;-88
2022/11/10 16:42:55;;;;;;;;;;;;;;;;;;4960388;28;19922;-87
2022/11/10 16:45:39;;;;;;;;;;;;;;;;;;4967406;28;20390;-88
2022/11/10 16:48:23;;;;;;;;;;;;;;;;;;4948748;28;19920;-88
2022/11/10 16:51:07;;;;;;;;;;;;;;;;;;4931976;28;20259;-88
2022/11/10 16:53:53;;;;;;;;;;;;;;;;;;4947785;28;19914;-88
2022/11/10 16:56:38;;;;;;;;;;;;;;;;;;4970107;28;20056;-88
2022/11/10 16:59:21;;;;;;;;;;;;;;;;;;4943111;28;20378;-88
2022/11/10 17:02:05;;;;;;;;;;;;;;;;;;4965876;28;19921;-87
2022/11/10 17:04:50;;;;;;;;;;;;;;;;;;4974196;28;19929;-88
2022/11/10 17:07:34;;;;;;;;;;;;;;;;;;4961320;28;19918;-86
2022/11/10 17:10:18;;;;;;;;;;;;;;;;;;4959668;28;20534;-87
2022/11/10 17:13:02;;;;;;;;;;;;;;;;;;4962714;28;19919;-86
2022/11/10 17:15:46;;;;;;;;;;;;;;;;;;4969296;28;20055;-87
2022/11/10 17:18:30;;;;;;;;;;;;;;;;;;4965442;28;19914;-87
2022/11/10 17:21:14;;;;;;;;;;;;;;;;;;4945240;28;19988;-88
2022/11/10 17:23:59;;;;;;;;;;;;;;;;;;4966639;28;19950;-87
2022/11/10 17:26:43;;;;;;;;;;;;;;;;;;4955578;28;19918;-88
2022/11/10 17:29:28;;;;;;;;;;;;;;;;;;4949150;28;19966;-85
2022/11/10 17:32:11;;;;;;;;;;;;;;;;;;4964532;28;20002;-87
2022/11/10 17:34:55;;;;;;;;;;;;;;;;;;4954643;28;20350;-88
2022/11/10 17:37:39;;;;;;;;;;;;;;;;;;4947340;28;19926;-87
2022/11/10 17:40:24;;;;;;;;;;;;;;;;;;4945451;28;19946;-90
2022/11/10 17:43:08;;;;;;;;;;;;;;;;;;4970548;28;19993;-88
2022/11/10 17:45:52;;;;;;;;;;;;;;;;;;4962005;28;19924;-88
2022/11/10 17:48:36;;;;;;;;;;;;;;;;;;4941684;28;19915;-89
2022/11/10 17:51:20;;;;;;;;;;;;;;;;;;4942721;28;19914;-90
2022/11/10 17:54:04;;;;;;;;;;;;;;;;;;4945742;28;20362;-90
2022/11/10 17:56:49;;;;;;;;;;;;;;;;;;4951177;28;20405;-89
2022/11/10 17:59:33;;;;;;;;;;;;;;;;;;4965571;28;19914;-88
2022/11/10 18:02:17;;;;;;;;;;;;;;;;;;4960148;28;20452;-91
2022/11/10 18:05:01;;;;;;;;;;;;;;;;;;4956744;28;20337;-88
2022/11/10 18:07:44;;;;;;;;;;;;;;;;;;4964986;28;20329;-89
2022/11/10 18:10:31;;;;;;;;;;;;;;;;;;4968625;28;19926;-88
2022/11/10 18:13:16;;;;;;;;;;;;;;;;;;4937347;28;20286;-88
2022/11/10 18:16:00;;;;;;;;;;;;;;;;;;4945636;29;19919;-87
2022/11/10 18:18:44;;;;;;;;;;;;;;;;;;4952719;28;19997;-83
2022/11/10 18:21:28;;;;;;;;;;;;;;;;;;4963822;28;19918;-87
2022/11/10 18:24:12;;;;;;;;;;;;;;;;;;4947089;28;19914;-89
2022/11/10 18:26:56;;;;;;;;;;;;;;;;;;4970658;28;20013;-89
2022/11/10 18:29:41;;;;;;;;;;;;;;;;;;4952511;28;19969;-88
2022/11/10 18:32:25;;;;;;;;;;;;;;;;;;4946282;29;20363;-88
2022/11/10 18:35:09;;;;;;;;;;;;;;;;;;4941513;28;19969;-87
2022/11/10 18:37:53;;;;;;;;;;;;;;;;;;4966024;28;19914;-86
2022/11/10 18:40:37;;;;;;;;;;;;;;;;;;4975490;28;19969;-85
2022/11/10 18:43:21;;;;;;;;;;;;;;;;;;4950735;28;19918;-91
2022/11/10 18:46:08;;;;;;;;;;;;;;;;;;4955784;28;19922;-89
2022/11/10 18:48:52;;;;;;;;;;;;;;;;;;4946519;28;20323;-90
2022/11/10 18:51:36;;;;;;;;;;;;;;;;;;4970978;28;19914;-91
2022/11/10 18:54:20;;;;;;;;;;;;;;;;;;4972253;28;19916;-88
2022/11/10 18:57:05;;;;;;;;;;;;;;;;;;4963241;28;19914;-91
2022/11/10 18:59:49;;;;;;;;;;;;;;;;;;4953397;29;19915;-90
2022/11/10 19:02:33;;;;;;;;;;;;;;;;;;4972924;28;19914;-90
2022/11/10 19:05:17;;;;;;;;;;;;;;;;;;4969480;23;19946;-80
2022/11/10 19:08:01;;;;;;;;;;;;;;;;;;4975801;28;20800;-81
2022/11/10 19:10:45;;;;;;;;;;;;;;;;;;4975028;28;20420;-81
2022/11/10 19:13:29;;;;;;;;;;;;;;;;;;4975388;28;19914;-80
2022/11/10 19:16:13;;;;;;;;;;;;;;;;;;4975880;28;19921;-80
2022/11/10 19:19:00;;;;;;;;;;;;;;;;;;4979023;28;19968;-80
2022/11/10 19:21:44;;;;;;;;;;;;;;;;;;4985799;28;19914;-79
2022/11/10 19:24:28;;;;;;;;;;;;;;;;;;4980458;28;20438;-80
2022/11/10 19:27:12;;;;;;;;;;;;;;;;;;4957767;28;20363;-80
2022/11/10 19:29:56;;;;;;;;;;;;;;;;;;4956192;29;19921;-80
2022/11/10 19:32:40;;;;;;;;;;;;;;;;;;4958116;28;20453;-80
2022/11/10 19:35:24;;;;;;;;;;;;;;;;;;4956858;28;19999;-80